This is the latest recevied weather packets stored in our database for station/object N5ZKK. If no packets are shown the sender has not sent any weather packets the latest 10 day(s).
| Time | Temp. | Humidity | Pressure | Rain* | Wind** | Luminosity | Snow |
|---|---|---|---|---|---|---|---|
| 1777052395 | 28.89° C | 67% | 1008.3 hPa | 0 mm | - | - | - |
| 1777050595 | 27.78° C | 72% | 1008.7 hPa | 0 mm | - | - | - |
| 1777048795 | 26.67° C | 76% | 1009.4 hPa | 0 mm | - | - | - |
| 1777046995 | 25° C | 84% | 1009.9 hPa | 0 mm | - | - | - |
| 1777045195 | 23.89° C | 88% | 1010.1 hPa | 0 mm | - | - | - |
| 1777043395 | 23.33° C | 91% | 1010 hPa | 0 mm | - | - | - |
| 1777041595 | 22.78° C | 92% | 1009.8 hPa | 0 mm | - | - | - |
| 1777039795 | 22.22° C | 95% | 1009.9 hPa | 0 mm | - | - | - |
| 1777037995 | 21.67° C | 97% | 1009.9 hPa | 0 mm | - | - | - |
| 1777036195 | 21.11° C | 99% | 1010 hPa | 0 mm | - | - | - |
| 1777034395 | 20.56° C | 99% | 1009.6 hPa | 0 mm | - | - | - |
| 1777032595 | 20.56° C | 99% | 1009.4 hPa | 0 mm | - | - | - |
| 1777030795 | 20.56° C | 99% | 1009 hPa | 0 mm | - | - | - |
| 1777028995 | 20.56° C | 99% | 1008.9 hPa | 0 mm | - | - | - |
| 1777027195 | 20.56° C | 99% | 1008.9 hPa | 0 mm | - | - | - |
| 1777025395 | 20.56° C | 99% | 1009 hPa | 0 mm | - | - | - |
| 1777023595 | 20.56° C | 99% | 1008.9 hPa | 0 mm | - | - | - |
| 1777021795 | 20.56° C | 99% | 1008.9 hPa | 0 mm | - | - | - |
| 1777019995 | 20.56° C | 99% | 1009 hPa | 0 mm | - | - | - |
| 1777018195 | 20.56° C | 99% | 1009.1 hPa | 0 mm | - | - | - |
| 1777016395 | 21.11° C | 98% | 1009.2 hPa | 0 mm | - | - | - |
| 1777014595 | 21.11° C | 96% | 1009.5 hPa | 0 mm | - | - | - |
| 1777012795 | 21.11° C | 95% | 1009.6 hPa | 0 mm | - | - | - |
| 1777010995 | 21.67° C | 93% | 1009.5 hPa | 0 mm | - | - | - |
| 1777009195 | 21.67° C | 93% | 1009.7 hPa | 0 mm | - | - | - |
* Rain latest hour (hover to see other rain measurements)
** Current wind speed in m/s (hover to see current wind gust speed)